createdAt,value
2023-05-19T00:01:15.369Z,102390.69
2023-05-19T00:03:54.019Z,102388.97
2023-05-19T00:06:25.594Z,102391.72
2023-05-19T00:08:57.833Z,102391.72
2023-05-19T00:11:26.711Z,102392.66
2023-05-19T00:13:54.572Z,102394.47
2023-05-19T00:16:22.935Z,102390.00
2023-05-19T00:18:49.959Z,102389.13
2023-05-19T00:21:17.072Z,102390.91
2023-05-19T00:23:44.087Z,102394.47
2023-05-19T00:26:11.148Z,102395.47
2023-05-19T00:28:42.361Z,102392.88
2023-05-19T00:31:09.329Z,102395.56
2023-05-19T00:33:36.112Z,102388.50
2023-05-19T00:36:04.197Z,102389.47
2023-05-19T00:38:31.968Z,102398.38
2023-05-19T00:40:59.370Z,102392.22
2023-05-19T00:43:26.567Z,102390.47
2023-05-19T00:45:53.485Z,102384.31
2023-05-19T00:48:21.111Z,102387.06
2023-05-19T00:50:48.295Z,102389.72
2023-05-19T00:53:15.716Z,102388.84
2023-05-19T00:55:43.045Z,102390.69
2023-05-19T00:58:12.611Z,102385.38
2023-05-19T01:00:40.029Z,102388.06
2023-05-19T01:03:11.700Z,102387.22
2023-05-19T01:05:41.892Z,102386.38
2023-05-19T01:08:09.384Z,102380.16
2023-05-19T01:10:36.889Z,102383.75
2023-05-19T01:13:05.534Z,102379.34
2023-05-19T01:15:52.562Z,102383.84
2023-05-19T01:18:26.313Z,102380.31
2023-05-19T01:21:03.941Z,102381.25
2023-05-19T01:23:51.978Z,102387.50
2023-05-19T01:26:49.733Z,102378.63
2023-05-19T01:30:07.592Z,102389.31
2023-05-19T01:32:34.993Z,102385.78
2023-05-19T01:35:04.306Z,102384.03
2023-05-19T01:37:31.613Z,102382.28
2023-05-19T01:39:58.540Z,102394.75
2023-05-19T01:42:25.431Z,102392.06
2023-05-19T01:45:01.520Z,102386.78
2023-05-19T01:47:28.503Z,102392.13
2023-05-19T01:49:55.322Z,102388.53
2023-05-19T01:52:22.108Z,102392.13
2023-05-19T01:54:51.956Z,102393.03
2023-05-19T01:57:35.430Z,102389.50
2023-05-19T02:00:31.223Z,102393.94
2023-05-19T02:03:31.741Z,102393.06
2023-05-19T02:06:20.084Z,102392.22
2023-05-19T02:08:57.926Z,102397.56
2023-05-19T02:11:35.963Z,102394.03
2023-05-19T02:14:06.638Z,102397.59
2023-05-19T02:16:34.078Z,102384.25
2023-05-19T02:19:01.154Z,102391.38
2023-05-19T02:21:28.112Z,102385.19
2023-05-19T02:23:55.328Z,102390.53
2023-05-19T02:26:23.015Z,102389.66
2023-05-19T02:28:52.853Z,102386.16
2023-05-19T02:31:19.667Z,102388.81
2023-05-19T02:33:46.481Z,102384.38
2023-05-19T02:36:14.758Z,102383.47
2023-05-19T02:38:41.560Z,102386.16
2023-05-19T06:38:02.172Z,102392.66
2023-05-19T06:40:29.862Z,102385.59
2023-05-19T06:42:56.921Z,102381.97
2023-05-19T06:45:56.006Z,102381.09
2023-05-19T06:48:25.065Z,102381.13
2023-05-19T06:50:52.344Z,102373.66
2023-05-19T06:53:20.294Z,102380.56
2023-05-19T06:55:58.679Z,102381.78
2023-05-19T06:58:27.974Z,102376.84
2023-05-19T07:00:55.780Z,102377.34
2023-05-19T07:03:26.290Z,102392.09
2023-05-19T07:05:54.475Z,102383.28
2023-05-19T07:08:21.279Z,102376.06
2023-05-19T07:10:48.190Z,102378.09
2023-05-19T07:13:17.078Z,102370.84
2023-05-19T07:15:44.166Z,102377.41
2023-05-19T07:18:11.227Z,102376.81
2023-05-19T07:20:38.082Z,102365.34
2023-05-19T07:23:05.605Z,102377.91
2023-05-19T07:25:33.467Z,102374.50
2023-05-19T07:28:00.347Z,102375.56
2023-05-19T07:30:28.915Z,102374.75
2023-05-19T07:32:55.924Z,102371.69
2023-05-19T07:35:25.574Z,102364.94
2023-05-19T07:37:52.714Z,102365.28
2023-05-19T07:40:19.942Z,102372.31
2023-05-19T07:42:47.013Z,102361.78
2023-05-19T07:45:13.757Z,102369.34
2023-05-19T07:47:41.476Z,102365.13
2023-05-19T07:50:08.599Z,102365.81
2023-05-19T07:52:35.473Z,102359.50
2023-05-19T07:55:02.395Z,102363.75
2023-05-19T07:57:29.140Z,102371.75
2023-05-19T07:59:56.043Z,102363.22
2023-05-19T08:02:22.908Z,102359.09
2023-05-19T08:04:49.785Z,102352.59
2023-05-19T08:07:16.728Z,102358.75
2023-05-19T08:09:43.811Z,102361.47
2023-05-19T08:12:10.699Z,102361.13
2023-05-19T08:14:37.730Z,102374.81
2023-05-19T08:17:04.581Z,102367.19
2023-05-19T08:19:31.603Z,102371.59
2023-05-19T08:22:01.336Z,102366.88
2023-05-19T08:24:32.970Z,102364.25
2023-05-19T08:26:59.897Z,102362.78
2023-05-19T08:29:26.714Z,102362.50
2023-05-19T08:31:53.785Z,102360.53
2023-05-19T08:34:20.991Z,102367.84
2023-05-19T08:36:48.106Z,102355.13
2023-05-19T08:39:16.502Z,102362.72
2023-05-19T08:41:43.461Z,102357.03
2023-05-19T08:44:10.355Z,102364.91
2023-05-19T08:46:37.406Z,102358.47
2023-05-19T08:49:09.643Z,102362.63
2023-05-19T08:51:49.717Z,102358.19
2023-05-19T08:54:18.277Z,102353.81
2023-05-19T08:56:48.384Z,102352.13
2023-05-19T08:59:16.593Z,102350.66
2023-05-19T09:01:46.929Z,102341.03
2023-05-19T09:04:14.313Z,102343.50
2023-05-19T09:06:41.375Z,102342.06
2023-05-19T09:09:08.772Z,102335.50
2023-05-19T09:11:37.794Z,102338.00
2023-05-19T09:14:05.932Z,102327.19
2023-05-19T09:16:34.313Z,102331.91
2023-05-19T09:19:01.704Z,102323.94
2023-05-19T09:21:31.417Z,102319.22
2023-05-19T09:23:59.626Z,102318.00
2023-05-19T09:26:36.721Z,102320.72
2023-05-19T09:29:11.345Z,102307.34
2023-05-19T09:31:38.363Z,102308.06
2023-05-19T09:34:05.373Z,102312.59
2023-05-19T09:36:32.393Z,102306.47
2023-05-19T09:38:59.299Z,102305.75
2023-05-19T09:41:26.648Z,102305.31
2023-05-19T09:43:56.646Z,102308.69
2023-05-19T09:46:30.479Z,102305.81
2023-05-19T09:48:58.787Z,102301.59
2023-05-19T09:51:25.952Z,102305.38
2023-05-19T09:53:53.780Z,102295.53
2023-05-19T09:56:23.958Z,102287.72
2023-05-19T09:58:50.984Z,102288.34
2023-05-19T10:01:18.406Z,102271.50
2023-05-19T10:03:45.644Z,102270.63
2023-05-19T10:06:12.846Z,102268.25
2023-05-19T10:08:39.949Z,102278.41
2023-05-19T10:11:07.133Z,102274.84
2023-05-19T10:13:36.402Z,102270.56
2023-05-19T10:16:03.808Z,102274.53
2023-05-19T10:18:31.350Z,102267.09
2023-05-19T10:20:59.295Z,102274.00
2023-05-19T10:23:26.467Z,102280.41
2023-05-19T10:25:56.817Z,102276.19
2023-05-19T10:28:26.889Z,102267.84
2023-05-19T10:30:56.015Z,102270.50
2023-05-19T10:33:32.226Z,102273.88
2023-05-19T10:36:11.349Z,102273.69
2023-05-19T10:38:53.605Z,102274.75
2023-05-19T10:41:42.117Z,102272.56
2023-05-19T10:44:30.810Z,102272.22
2023-05-19T10:46:57.855Z,102272.78
2023-05-19T10:49:24.639Z,102268.88
2023-05-19T10:51:57.248Z,102270.41
2023-05-19T10:54:41.223Z,102274.00
2023-05-19T10:57:08.545Z,102262.31
2023-05-19T10:59:38.053Z,102259.19
2023-05-19T11:02:05.864Z,102262.56
2023-05-19T11:04:51.651Z,102268.28
2023-05-19T11:07:20.661Z,102260.06
2023-05-19T11:09:53.805Z,102261.91
2023-05-19T11:12:25.355Z,102267.41
2023-05-19T11:14:53.879Z,102262.78
2023-05-19T11:17:23.960Z,102256.66
2023-05-19T11:19:57.841Z,102251.81
2023-05-19T11:22:28.341Z,102254.66
2023-05-19T11:24:56.165Z,102249.31
2023-05-19T11:27:33.759Z,102242.13
2023-05-19T11:30:16.143Z,102231.47
2023-05-19T11:32:44.507Z,102231.38
2023-05-19T11:35:11.630Z,102239.59
2023-05-19T11:37:40.689Z,102240.56
2023-05-19T11:40:08.217Z,102242.84
2023-05-19T11:42:37.210Z,102230.75
2023-05-19T11:45:05.074Z,102224.78
2023-05-19T11:47:41.988Z,102232.22
2023-05-19T11:50:12.818Z,102233.38
2023-05-19T11:52:44.889Z,102231.34
2023-05-19T11:55:16.154Z,102238.69
2023-05-19T11:58:02.852Z,102234.38
2023-05-19T12:00:37.458Z,102240.09
2023-05-19T12:03:04.730Z,102234.72
2023-05-19T12:05:34.431Z,102233.50
2023-05-19T12:08:03.323Z,102238.13
2023-05-19T12:10:31.977Z,102234.50
2023-05-19T12:13:00.102Z,102235.13
2023-05-19T12:15:26.975Z,102225.34
2023-05-19T12:17:59.102Z,102223.06
2023-05-19T12:20:27.015Z,102226.72
2023-05-19T12:22:57.368Z,102226.09
2023-05-19T12:25:25.005Z,102227.47
2023-05-19T12:27:56.825Z,102226.72
2023-05-19T12:30:31.576Z,102218.56
2023-05-19T12:32:58.859Z,102215.22
2023-05-19T12:35:30.420Z,102223.00
2023-05-19T12:37:57.945Z,102210.06
2023-05-19T12:40:26.055Z,102203.97
2023-05-19T12:42:59.451Z,102194.41
2023-05-19T12:45:28.407Z,102211.00
2023-05-19T12:47:56.446Z,102213.94
2023-05-19T12:50:30.384Z,102203.72
2023-05-19T12:52:59.949Z,102198.75
2023-05-19T12:55:27.051Z,102202.91
2023-05-19T12:57:57.484Z,102200.66
2023-05-19T13:00:32.874Z,102203.31
2023-05-19T13:03:01.044Z,102198.94
2023-05-19T13:05:29.387Z,102204.25
2023-05-19T13:08:02.472Z,102200.28
2023-05-19T13:10:30.015Z,102197.63
2023-05-19T13:12:58.235Z,102196.13
2023-05-19T13:15:26.921Z,102195.00
2023-05-19T13:17:54.656Z,102201.28
2023-05-19T13:20:22.014Z,102194.34
2023-05-19T13:22:49.264Z,102188.66
2023-05-19T13:25:16.242Z,102196.63
2023-05-19T13:27:44.574Z,102189.50
2023-05-19T13:30:12.098Z,102193.81
2023-05-19T13:32:39.024Z,102206.19
2023-05-19T13:35:07.174Z,102191.75
2023-05-19T13:37:34.105Z,102186.34
2023-05-19T13:40:01.723Z,102182.38
2023-05-19T13:42:28.580Z,102179.72
2023-05-19T13:44:58.848Z,102180.84
2023-05-19T13:47:25.974Z,102182.84
2023-05-19T13:49:53.217Z,102187.75
2023-05-19T13:52:23.784Z,102190.44
2023-05-19T13:54:50.982Z,102185.03
2023-05-19T13:57:17.949Z,102190.44
2023-05-19T14:00:00.064Z,102193.38
2023-05-19T14:02:28.548Z,102199.41
2023-05-19T14:04:56.120Z,102186.31
2023-05-19T14:07:22.924Z,102186.34
2023-05-19T14:09:51.428Z,102194.75
2023-05-19T14:12:18.678Z,102186.66
2023-05-19T14:14:48.543Z,102181.94
2023-05-19T14:17:15.424Z,102177.47
2023-05-19T14:19:42.392Z,102174.03
2023-05-19T14:22:09.383Z,102182.63
2023-05-19T14:24:36.385Z,102188.72
2023-05-19T14:27:03.244Z,102189.31
2023-05-19T14:29:31.432Z,102201.44
2023-05-19T14:31:58.427Z,102189.03
2023-05-19T14:34:25.581Z,102184.41
2023-05-19T14:36:52.473Z,102190.44
2023-05-19T14:39:19.408Z,102195.91
2023-05-19T14:41:46.363Z,102188.28
2023-05-19T14:44:13.725Z,102202.41
2023-05-19T14:46:40.586Z,102199.97
2023-05-19T14:49:07.965Z,102200.44
2023-05-19T14:51:34.740Z,102190.78
2023-05-19T14:54:02.492Z,102188.69
2023-05-19T14:56:29.411Z,102192.38
2023-05-19T14:58:56.694Z,102193.56
2023-05-19T15:01:23.632Z,102189.13
2023-05-19T15:03:50.615Z,102188.47
2023-05-19T15:06:17.413Z,102185.91
2023-05-19T15:08:44.168Z,102188.16
2023-05-19T15:11:11.096Z,102193.44
2023-05-19T15:13:37.892Z,102201.31
2023-05-19T15:16:15.650Z,102184.22
2023-05-19T15:18:44.186Z,102195.03
2023-05-19T15:21:11.140Z,102183.72
2023-05-19T15:23:37.952Z,102184.69
2023-05-19T15:26:04.771Z,102188.81
2023-05-19T15:28:32.374Z,102187.09
2023-05-19T15:30:59.262Z,102186.16
2023-05-19T15:33:26.564Z,102183.59
2023-05-19T15:35:53.556Z,102169.00
2023-05-19T15:38:20.615Z,102180.84
2023-05-19T15:40:47.469Z,102178.78
2023-05-19T15:43:14.444Z,102175.34
2023-05-19T15:45:41.220Z,102174.25
2023-05-19T15:48:08.623Z,102170.91
2023-05-19T15:50:35.883Z,102179.91
2023-05-19T15:53:03.000Z,102178.47
2023-05-19T15:55:29.920Z,102191.38
2023-05-19T15:57:56.974Z,102191.31
2023-05-19T16:00:23.830Z,102177.00
2023-05-19T16:02:51.253Z,102179.13
2023-05-19T16:05:18.319Z,102174.38
2023-05-19T16:07:45.378Z,102177.13
2023-05-19T16:10:12.260Z,102169.22
2023-05-19T16:12:39.144Z,102173.34
2023-05-19T16:15:06.450Z,102172.72
2023-05-19T16:17:33.746Z,102168.69
2023-05-19T16:20:00.576Z,102176.66
2023-05-19T16:22:27.680Z,102170.34
2023-05-19T16:24:54.440Z,102166.41
2023-05-19T16:27:21.327Z,102170.25
2023-05-19T16:29:49.221Z,102167.66
2023-05-19T16:32:16.223Z,102168.09
2023-05-19T16:34:43.034Z,102164.31
2023-05-19T16:37:09.995Z,102167.75
2023-05-19T16:39:40.527Z,102164.63
2023-05-19T16:42:07.564Z,102164.38
2023-05-19T16:44:34.353Z,102166.53
2023-05-19T16:47:01.167Z,102166.44
2023-05-19T16:49:28.079Z,102168.94
2023-05-19T16:51:55.991Z,102171.97
2023-05-19T16:54:23.623Z,102176.19
2023-05-19T16:56:51.471Z,102172.19
2023-05-19T16:59:18.331Z,102178.13
2023-05-19T17:01:45.362Z,102173.28
2023-05-19T17:04:12.159Z,102174.03
2023-05-19T17:06:39.138Z,102171.22
2023-05-19T17:09:06.176Z,102178.16
2023-05-19T17:11:33.124Z,102172.09
2023-05-19T17:14:00.075Z,102173.16
2023-05-19T17:16:27.091Z,102181.44
2023-05-19T17:18:54.529Z,102177.56
2023-05-19T17:21:21.827Z,102181.75
2023-05-19T17:23:49.655Z,102179.63
2023-05-19T17:26:17.462Z,102175.84
2023-05-19T17:28:44.853Z,102186.06
2023-05-19T17:31:12.885Z,102181.91
2023-05-19T17:33:39.814Z,102189.00
2023-05-19T17:36:07.659Z,102182.50
2023-05-19T17:38:34.774Z,102180.94
2023-05-19T17:41:02.483Z,102178.50
2023-05-19T17:43:29.442Z,102185.16
2023-05-19T17:45:58.152Z,102184.34
2023-05-19T17:48:26.084Z,102184.44
2023-05-19T17:50:52.933Z,102192.03
2023-05-19T17:53:20.082Z,102187.34
2023-05-19T17:55:51.505Z,102182.19
2023-05-19T17:58:19.334Z,102181.00
2023-05-19T18:00:46.380Z,102176.34
2023-05-19T18:03:13.621Z,102174.97
2023-05-19T18:05:41.426Z,102183.88
2023-05-19T18:08:09.644Z,102177.78
2023-05-19T18:10:37.842Z,102186.00
2023-05-19T18:13:05.783Z,102176.03
2023-05-19T18:15:32.568Z,102182.75
2023-05-19T18:17:59.477Z,102192.59
2023-05-19T18:20:26.406Z,102191.53
2023-05-19T18:22:53.296Z,102186.03
2023-05-19T18:25:21.136Z,102197.28
2023-05-19T18:27:48.087Z,102198.81
2023-05-19T18:30:14.986Z,102184.66
2023-05-19T18:32:41.906Z,102195.16
2023-05-19T18:35:09.973Z,102193.13
2023-05-19T18:37:37.083Z,102204.97
2023-05-19T18:40:04.040Z,102200.97
2023-05-19T18:42:30.865Z,102203.38
2023-05-19T18:44:58.082Z,102203.94
2023-05-19T18:47:25.083Z,102199.72
2023-05-19T18:49:51.953Z,102197.31
2023-05-19T18:52:20.095Z,102201.25
2023-05-19T18:54:47.551Z,102209.72
2023-05-19T18:57:14.804Z,102196.69
2023-05-19T18:59:41.618Z,102204.94
2023-05-19T19:02:08.563Z,102207.41
2023-05-19T19:04:35.696Z,102207.34
2023-05-19T19:07:02.659Z,102206.22
2023-05-19T19:09:29.955Z,102204.16
2023-05-19T19:11:56.773Z,102207.47
2023-05-19T19:14:23.575Z,102213.41
2023-05-19T19:16:50.707Z,102207.91
2023-05-19T19:19:17.568Z,102212.78
2023-05-19T19:21:44.458Z,102217.94
2023-05-19T19:24:11.511Z,102218.00
2023-05-19T19:26:38.566Z,102219.22
2023-05-19T19:29:05.515Z,102218.91
2023-05-19T19:31:33.608Z,102226.31
2023-05-19T19:34:03.885Z,102217.13
2023-05-19T19:36:32.104Z,102230.59
2023-05-19T19:38:59.084Z,102227.44
2023-05-19T19:41:26.971Z,102214.63
2023-05-19T19:43:54.073Z,102223.34
2023-05-19T19:46:20.966Z,102219.41
2023-05-19T19:48:48.190Z,102215.47
2023-05-19T19:51:15.008Z,102227.78
2023-05-19T19:53:41.938Z,102228.00
2023-05-19T19:56:08.789Z,102230.22
2023-05-19T19:58:35.696Z,102219.28
2023-05-19T20:01:03.835Z,102229.13
2023-05-19T20:03:31.883Z,102226.75
2023-05-19T20:05:59.169Z,102232.50
2023-05-19T20:08:26.561Z,102226.41
2023-05-19T20:10:53.484Z,102235.25
2023-05-19T20:13:20.577Z,102233.66
2023-05-19T20:15:47.497Z,102236.25
2023-05-19T20:18:15.488Z,102241.72
2023-05-19T20:20:42.895Z,102245.44
2023-05-19T20:23:09.855Z,102243.09
2023-05-19T20:25:57.799Z,102247.56
2023-05-19T20:28:26.113Z,102254.06
2023-05-19T20:30:53.012Z,102249.50
2023-05-19T20:33:19.875Z,102242.50
2023-05-19T20:35:46.636Z,102247.94
2023-05-19T20:38:13.574Z,102253.81
2023-05-19T20:40:40.456Z,102255.41
2023-05-19T20:43:07.367Z,102260.31
2023-05-19T20:45:34.363Z,102261.09
2023-05-19T20:48:02.937Z,102269.97
2023-05-19T20:50:29.968Z,102265.59
2023-05-19T20:52:56.834Z,102260.41
2023-05-19T20:55:23.731Z,102263.97
2023-05-19T20:57:50.604Z,102254.25
2023-05-19T21:00:17.865Z,102259.78
2023-05-19T21:02:45.072Z,102257.28
2023-05-19T21:05:12.079Z,102258.38
2023-05-19T21:07:38.972Z,102249.53
2023-05-19T21:10:06.567Z,102252.53
2023-05-19T21:12:34.540Z,102263.47
2023-05-19T21:15:02.020Z,102258.53
2023-05-19T21:17:29.193Z,102263.09
2023-05-19T21:19:59.605Z,102264.88
2023-05-19T21:22:26.975Z,102269.66
2023-05-19T21:24:54.434Z,102257.16
2023-05-19T21:27:21.374Z,102267.97
2023-05-19T21:29:52.579Z,102269.00
2023-05-19T21:32:19.793Z,102274.41
2023-05-19T21:34:46.677Z,102271.03
